createdAt,value
2018-05-17T00:00:43.143Z,13.02
2018-05-17T00:03:10.527Z,13.00
2018-05-17T00:05:37.919Z,13.14
2018-05-17T00:08:05.307Z,13.17
2018-05-17T00:10:32.696Z,13.22
2018-05-17T00:13:00.096Z,13.19
2018-05-17T00:15:27.632Z,13.16
2018-05-17T00:17:55.024Z,13.02
2018-05-17T00:20:22.410Z,13.07
2018-05-17T00:22:49.808Z,13.08
2018-05-17T00:25:17.190Z,13.13
2018-05-17T00:27:44.592Z,13.09
2018-05-17T00:30:11.984Z,13.19
2018-05-17T00:32:39.383Z,13.20
2018-05-17T00:35:06.773Z,13.10
2018-05-17T00:37:34.158Z,13.06
2018-05-17T00:40:01.551Z,13.03
2018-05-17T00:42:28.943Z,13.04
2018-05-17T00:44:56.343Z,13.05
2018-05-17T00:47:23.735Z,13.03
2018-05-17T00:49:51.218Z,12.94
2018-05-17T00:52:18.631Z,12.87
2018-05-17T00:54:46.215Z,12.84
2018-05-17T00:57:13.610Z,12.95
2018-05-17T00:59:41.084Z,12.99
2018-05-17T01:02:08.391Z,12.91
2018-05-17T01:04:35.779Z,12.72
2018-05-17T01:07:03.166Z,12.72
2018-05-17T01:09:30.582Z,12.70
2018-05-17T01:11:57.979Z,12.72
2018-05-17T01:14:25.367Z,12.68
2018-05-17T01:16:52.760Z,12.67
2018-05-17T01:19:20.298Z,12.54
2018-05-17T01:21:47.682Z,12.35
2018-05-17T01:24:15.134Z,12.24
2018-05-17T01:26:42.565Z,12.16
2018-05-17T01:29:09.912Z,11.98
2018-05-17T01:31:37.291Z,11.90
2018-05-17T01:34:04.688Z,11.94
2018-05-17T01:36:32.075Z,11.98
2018-05-17T01:38:59.470Z,11.92
2018-05-17T01:41:26.854Z,11.83
2018-05-17T01:43:54.255Z,11.78
2018-05-17T01:46:21.638Z,11.84
2018-05-17T01:48:49.036Z,11.86
2018-05-17T01:51:16.423Z,11.79
2018-05-17T01:53:43.878Z,11.82
2018-05-17T01:56:11.271Z,11.69
2018-05-17T01:58:38.654Z,11.62
2018-05-17T02:01:06.054Z,11.76
2018-05-17T02:03:33.443Z,11.70
2018-05-17T02:06:00.875Z,11.82
2018-05-17T02:08:28.254Z,11.75
2018-05-17T02:10:55.669Z,11.81
2018-05-17T02:13:23.056Z,11.82
2018-05-17T02:15:50.447Z,11.62
2018-05-17T02:18:17.842Z,11.50
2018-05-17T02:20:45.222Z,11.65
2018-05-17T02:23:12.614Z,11.49
2018-05-17T02:25:40.007Z,11.51
2018-05-17T02:28:07.402Z,11.28
2018-05-17T02:30:34.786Z,11.38
2018-05-17T02:33:02.175Z,11.31
2018-05-17T02:35:29.568Z,11.31
2018-05-17T02:37:56.963Z,11.31
2018-05-17T02:40:24.355Z,11.18
2018-05-17T02:42:51.739Z,11.12
2018-05-17T02:45:19.147Z,11.16
2018-05-17T02:47:46.540Z,11.17
2018-05-17T02:50:13.918Z,11.24
2018-05-17T02:52:41.314Z,11.29
2018-05-17T02:55:08.703Z,11.38
2018-05-17T02:57:36.107Z,11.35
2018-05-17T03:00:03.495Z,11.31
2018-05-17T03:02:30.895Z,11.19
2018-05-17T03:04:58.275Z,11.28
2018-05-17T03:07:25.671Z,11.26
2018-05-17T03:09:53.062Z,11.17
2018-05-17T03:12:20.478Z,11.24
2018-05-17T03:14:47.871Z,11.31
2018-05-17T03:17:15.262Z,11.34
2018-05-17T03:19:42.658Z,11.41
2018-05-17T03:22:10.047Z,11.48
2018-05-17T03:24:37.442Z,11.56
2018-05-17T03:27:04.832Z,11.44
2018-05-17T03:29:32.223Z,11.40
2018-05-17T03:31:59.609Z,11.39
2018-05-17T03:34:27.170Z,11.40
2018-05-17T03:36:54.554Z,11.26
2018-05-17T03:39:21.954Z,11.26
2018-05-17T03:41:49.350Z,11.23
2018-05-17T03:44:16.735Z,11.28
2018-05-17T03:46:44.136Z,11.25
2018-05-17T03:49:11.529Z,11.25
2018-05-17T03:51:38.919Z,11.28
2018-05-17T03:54:06.311Z,11.22
2018-05-17T03:56:33.717Z,11.23
2018-05-17T03:59:01.113Z,11.27
2018-05-17T04:01:40.150Z,11.25
2018-05-17T04:04:19.334Z,11.13
2018-05-17T04:06:46.722Z,11.06
2018-05-17T04:09:14.118Z,11.01
2018-05-17T04:11:41.515Z,11.07
2018-05-17T04:14:08.898Z,11.13
2018-05-17T04:16:36.295Z,11.17
2018-05-17T04:19:03.694Z,11.16
2018-05-17T04:21:31.104Z,11.27
2018-05-17T04:23:58.494Z,11.19
2018-05-17T04:26:25.938Z,11.20
2018-05-17T04:28:53.307Z,11.22
2018-05-17T04:31:20.688Z,11.30
2018-05-17T04:33:48.087Z,11.28
2018-05-17T04:36:16.282Z,11.31
2018-05-17T04:38:43.665Z,11.21
2018-05-17T04:41:11.062Z,11.10
2018-05-17T04:43:38.451Z,11.06
2018-05-17T04:46:05.887Z,11.02
2018-05-17T04:48:33.259Z,11.04
2018-05-17T04:51:00.646Z,11.12
2018-05-17T04:53:28.037Z,11.13
2018-05-17T04:55:55.424Z,11.20
2018-05-17T04:58:22.823Z,11.35
2018-05-17T05:00:50.216Z,11.38
2018-05-17T05:03:17.609Z,11.40
2018-05-17T05:05:44.994Z,11.36
2018-05-17T05:08:12.394Z,11.29
2018-05-17T05:10:39.783Z,11.28
2018-05-17T05:13:07.167Z,11.23
2018-05-17T05:15:34.559Z,11.41
2018-05-17T05:18:01.992Z,11.53
2018-05-17T05:20:29.388Z,11.60
2018-05-17T05:22:56.799Z,11.52
2018-05-17T05:25:24.298Z,11.62
2018-05-17T05:27:51.602Z,11.74
2018-05-17T05:30:18.995Z,11.53
2018-05-17T05:32:46.399Z,11.61
2018-05-17T05:35:13.775Z,11.62
2018-05-17T05:37:41.202Z,11.70
2018-05-17T05:40:08.555Z,11.82
2018-05-17T05:42:35.958Z,11.81
2018-05-17T05:45:03.347Z,11.92
2018-05-17T05:47:30.748Z,11.65
2018-05-17T05:49:58.211Z,11.80
2018-05-17T05:52:25.604Z,11.77
2018-05-17T05:54:52.998Z,11.69
2018-05-17T05:57:20.398Z,11.65
2018-05-17T05:59:47.802Z,11.71
2018-05-17T06:02:15.189Z,11.62
2018-05-17T06:04:42.579Z,11.71
2018-05-17T06:07:10.043Z,11.84
2018-05-17T06:09:37.367Z,11.92
2018-05-17T06:12:04.756Z,11.78
2018-05-17T06:14:32.167Z,11.79
2018-05-17T06:16:59.572Z,11.75
2018-05-17T06:19:26.980Z,11.71
2018-05-17T06:21:54.375Z,11.76
2018-05-17T06:24:21.826Z,11.88
2018-05-17T06:26:49.203Z,11.55
2018-05-17T06:29:16.589Z,11.72
2018-05-17T06:31:43.990Z,11.67
2018-05-17T06:34:11.461Z,11.85
2018-05-17T06:36:38.831Z,11.95
2018-05-17T06:39:06.225Z,11.98
2018-05-17T06:41:33.615Z,11.97
2018-05-17T06:44:01.027Z,11.85
2018-05-17T06:46:28.398Z,12.08
2018-05-17T06:48:55.786Z,11.98
2018-05-17T06:51:23.174Z,12.09
2018-05-17T06:53:50.568Z,12.29
2018-05-17T06:56:17.959Z,12.49
2018-05-17T06:58:45.355Z,12.34
2018-05-17T07:01:12.784Z,12.49
2018-05-17T07:03:40.139Z,12.54
2018-05-17T07:06:07.539Z,12.46
2018-05-17T07:08:34.928Z,12.63
2018-05-17T07:11:02.322Z,12.35
2018-05-17T07:13:29.920Z,12.28
2018-05-17T07:15:57.307Z,12.40
2018-05-17T07:18:24.882Z,12.39
2018-05-17T07:20:52.090Z,12.73
2018-05-17T07:23:19.491Z,13.04
2018-05-17T07:25:46.884Z,12.97
2018-05-17T07:28:14.276Z,12.70
2018-05-17T07:30:41.727Z,12.90
2018-05-17T07:33:09.116Z,13.05
2018-05-17T07:35:36.510Z,13.38
2018-05-17T07:38:03.894Z,13.56
2018-05-17T07:40:31.308Z,13.43
2018-05-17T07:42:58.690Z,13.15
2018-05-17T07:45:26.120Z,12.72
2018-05-17T07:47:53.663Z,12.97
2018-05-17T07:50:21.047Z,13.15
2018-05-17T07:52:48.443Z,13.24
2018-05-17T07:55:15.831Z,13.14
2018-05-17T07:57:43.226Z,12.91
2018-05-17T08:00:10.615Z,12.99
2018-05-17T08:02:38.023Z,12.63
2018-05-17T08:05:05.406Z,12.59
2018-05-17T08:07:32.810Z,12.69
2018-05-17T08:10:00.203Z,12.68
2018-05-17T08:12:27.670Z,12.72
2018-05-17T08:14:55.185Z,12.71
2018-05-17T08:17:22.563Z,12.58
2018-05-17T08:19:49.951Z,12.69
2018-05-17T08:22:17.347Z,12.95
2018-05-17T08:24:44.747Z,13.21
2018-05-17T08:27:12.163Z,13.61
2018-05-17T08:29:39.543Z,13.86
2018-05-17T08:32:06.935Z,14.17
2018-05-17T08:34:34.326Z,14.30
2018-05-17T08:37:01.832Z,14.44
2018-05-17T08:39:29.225Z,14.33
2018-05-17T08:41:56.625Z,14.07
2018-05-17T08:44:24.007Z,14.23
2018-05-17T08:46:51.395Z,14.32
2018-05-17T08:49:18.787Z,14.31
2018-05-17T08:51:46.175Z,14.42
2018-05-17T08:54:13.571Z,14.43
2018-05-17T08:56:40.955Z,14.83
2018-05-17T08:59:08.358Z,15.25
2018-05-17T09:01:35.750Z,15.48
2018-05-17T09:04:03.135Z,15.40
2018-05-17T09:06:30.587Z,15.19
2018-05-17T09:08:58.005Z,15.33
2018-05-17T09:11:25.360Z,15.62
2018-05-17T09:13:52.881Z,15.86
2018-05-17T09:16:20.175Z,15.81
2018-05-17T09:18:47.607Z,15.45
2018-05-17T09:21:14.970Z,15.14
2018-05-17T09:23:42.362Z,15.12
2018-05-17T09:26:09.759Z,14.93
2018-05-17T09:28:37.160Z,14.92
2018-05-17T09:31:04.539Z,15.04
2018-05-17T09:33:31.939Z,15.42
2018-05-17T09:35:59.327Z,15.36
2018-05-17T09:38:26.779Z,15.55
2018-05-17T09:40:54.173Z,15.94
2018-05-17T09:43:21.559Z,16.78
2018-05-17T09:45:49.003Z,17.10
2018-05-17T09:48:16.392Z,16.98
2018-05-17T09:50:43.787Z,17.24
2018-05-17T09:53:11.175Z,17.49
2018-05-17T09:55:38.563Z,18.14
2018-05-17T09:58:06.079Z,18.31
2018-05-17T10:00:33.495Z,18.49
2018-05-17T10:03:00.883Z,18.08
2018-05-17T10:05:28.338Z,18.07
2018-05-17T10:07:55.732Z,18.62
2018-05-17T10:10:23.127Z,18.44
2018-05-17T10:12:50.518Z,17.49
2018-05-17T10:15:17.906Z,17.59
2018-05-17T10:17:45.295Z,18.04
2018-05-17T10:20:12.698Z,18.36
2018-05-17T10:22:40.098Z,18.55
2018-05-17T10:25:07.491Z,18.20
2018-05-17T10:27:34.891Z,18.30
2018-05-17T10:30:02.274Z,18.78
2018-05-17T10:32:29.663Z,18.76
2018-05-17T10:34:57.059Z,18.39
2018-05-17T10:37:24.453Z,18.42
2018-05-17T10:39:51.831Z,18.87
2018-05-17T10:42:19.294Z,19.40
2018-05-17T10:44:46.630Z,19.87
2018-05-17T10:47:14.011Z,20.16
2018-05-17T10:49:41.398Z,20.15
2018-05-17T10:52:08.803Z,19.76
2018-05-17T10:54:36.304Z,20.65
2018-05-17T10:57:03.622Z,21.12
2018-05-17T10:59:31.011Z,21.33
2018-05-17T11:01:58.410Z,21.71
2018-05-17T11:04:25.795Z,21.81
2018-05-17T11:06:53.186Z,21.44
2018-05-17T11:09:20.706Z,21.21
2018-05-17T11:11:48.091Z,21.38
2018-05-17T11:14:15.478Z,20.30
2018-05-17T11:16:42.878Z,21.03
2018-05-17T11:19:10.266Z,21.07
2018-05-17T11:21:37.656Z,20.52
2018-05-17T11:24:05.059Z,20.09
2018-05-17T11:26:32.452Z,19.86
2018-05-17T11:28:59.848Z,19.35
2018-05-17T11:31:27.237Z,19.32
2018-05-17T11:33:54.627Z,19.77
2018-05-17T11:36:22.017Z,19.85
2018-05-17T11:38:49.403Z,20.33
2018-05-17T11:41:16.806Z,19.75
2018-05-17T11:43:44.204Z,19.64
2018-05-17T11:46:11.598Z,19.68
2018-05-17T11:48:38.980Z,20.45
2018-05-17T11:51:06.391Z,20.99
2018-05-17T11:53:33.770Z,21.13
2018-05-17T11:56:01.165Z,21.33
2018-05-17T11:58:28.558Z,21.33
2018-05-17T12:00:55.951Z,21.76
2018-05-17T12:03:23.342Z,22.14
2018-05-17T12:05:50.734Z,22.50
2018-05-17T12:08:18.122Z,22.39
2018-05-17T12:10:45.507Z,22.66
2018-05-17T12:13:12.903Z,22.34
2018-05-17T12:15:40.286Z,22.32
2018-05-17T12:18:07.679Z,22.46
2018-05-17T12:20:35.083Z,22.08
2018-05-17T12:23:02.563Z,21.84
2018-05-17T12:25:29.870Z,21.43
2018-05-17T12:27:57.258Z,20.55
2018-05-17T12:30:24.651Z,19.86
2018-05-17T12:32:52.039Z,19.88
2018-05-17T12:35:19.439Z,19.67
2018-05-17T12:37:46.826Z,19.67
2018-05-17T12:40:14.215Z,20.09
2018-05-17T12:42:41.638Z,20.38
2018-05-17T12:45:08.989Z,20.79
2018-05-17T12:47:36.387Z,21.20
2018-05-17T12:50:03.782Z,20.82
2018-05-17T12:52:31.175Z,20.77
2018-05-17T12:54:58.559Z,20.73
2018-05-17T12:57:25.967Z,21.18
2018-05-17T12:59:53.346Z,20.49
2018-05-17T13:02:20.738Z,20.59
2018-05-17T13:04:48.131Z,20.79
2018-05-17T13:07:15.531Z,20.57
2018-05-17T13:09:42.919Z,20.45
2018-05-17T13:12:10.303Z,19.74
2018-05-17T13:14:37.696Z,20.03
2018-05-17T13:17:05.088Z,20.60
2018-05-17T13:19:32.486Z,20.85
2018-05-17T13:21:59.874Z,21.05
2018-05-17T13:24:27.278Z,20.58
2018-05-17T13:26:54.666Z,20.37
2018-05-17T13:29:22.063Z,20.46
2018-05-17T13:31:49.450Z,20.07
2018-05-17T13:34:16.917Z,20.59
2018-05-17T13:36:44.239Z,20.72
2018-05-17T13:39:11.629Z,20.59
2018-05-17T13:41:39.013Z,20.76
2018-05-17T13:44:06.399Z,21.17
2018-05-17T13:46:33.791Z,21.29
2018-05-17T13:49:01.233Z,20.58
2018-05-17T13:51:28.558Z,20.28
2018-05-17T13:53:55.951Z,20.46
2018-05-17T13:56:23.349Z,20.58
2018-05-17T13:58:50.734Z,20.41
2018-05-17T14:01:18.135Z,20.08
2018-05-17T14:03:45.529Z,20.12
2018-05-17T14:06:12.919Z,20.10
2018-05-17T14:08:40.311Z,19.94
2018-05-17T14:11:07.707Z,20.19
2018-05-17T14:13:35.103Z,20.38
2018-05-17T14:16:02.494Z,20.57
2018-05-17T14:18:29.891Z,20.43
2018-05-17T14:20:57.275Z,20.63
2018-05-17T14:23:24.679Z,20.47
2018-05-17T14:25:52.070Z,20.56
2018-05-17T14:28:19.572Z,20.81
2018-05-17T14:30:46.870Z,20.38
2018-05-17T14:33:14.261Z,20.20
2018-05-17T14:35:41.661Z,20.13
2018-05-17T14:38:09.043Z,20.22
2018-05-17T14:40:36.447Z,19.95
2018-05-17T14:43:04.436Z,19.85
2018-05-17T14:45:31.862Z,19.80
2018-05-17T14:47:59.254Z,19.66
2018-05-17T14:50:26.647Z,19.48
2018-05-17T14:52:54.026Z,19.51
2018-05-17T14:55:21.517Z,19.70
2018-05-17T14:57:48.902Z,19.83
2018-05-17T15:00:16.291Z,19.46
2018-05-17T15:02:43.683Z,19.04
2018-05-17T15:05:11.127Z,19.18
2018-05-17T15:07:38.620Z,19.28
2018-05-17T15:10:07.685Z,19.35
2018-05-17T15:12:35.320Z,19.38
2018-05-17T15:15:02.715Z,19.12
2018-05-17T15:17:30.110Z,19.23
2018-05-17T15:19:57.499Z,19.21
2018-05-17T15:22:24.942Z,19.26
2018-05-17T15:24:52.330Z,19.43
2018-05-17T15:27:19.828Z,19.59
2018-05-17T15:29:47.266Z,19.75
2018-05-17T15:32:14.530Z,19.83
2018-05-17T15:34:41.923Z,20.05
2018-05-17T15:37:09.319Z,20.02
2018-05-17T15:39:36.728Z,20.23
2018-05-17T15:42:04.115Z,19.73
2018-05-17T15:44:31.499Z,19.43
2018-05-17T15:46:58.892Z,19.22
2018-05-17T15:49:26.289Z,19.33
2018-05-17T15:51:53.674Z,19.43
2018-05-17T15:54:21.075Z,19.39
2018-05-17T15:56:48.467Z,19.23
2018-05-17T15:59:15.883Z,19.02
2018-05-17T16:01:43.271Z,19.15
2018-05-17T16:04:10.725Z,19.15
2018-05-17T16:06:38.071Z,19.25
2018-05-17T16:09:06.254Z,19.21
2018-05-17T16:11:33.672Z,19.26
2018-05-17T16:14:01.083Z,19.07
2018-05-17T16:16:28.507Z,18.93
2018-05-17T16:18:55.905Z,18.96
2018-05-17T16:21:23.356Z,19.00
2018-05-17T16:23:50.742Z,19.27
2018-05-17T16:26:18.131Z,19.28
2018-05-17T16:28:45.527Z,19.12
2018-05-17T16:31:12.915Z,18.88
2018-05-17T16:33:40.306Z,18.77
2018-05-17T16:36:07.691Z,18.79
2018-05-17T16:38:35.090Z,18.69
2018-05-17T16:41:02.480Z,18.78
2018-05-17T16:43:29.867Z,18.78
2018-05-17T16:45:57.259Z,18.65
2018-05-17T16:48:24.767Z,18.58
2018-05-17T16:50:52.043Z,18.88
2018-05-17T16:53:19.575Z,18.70
2018-05-17T16:55:46.831Z,18.72
2018-05-17T16:58:14.235Z,18.71
2018-05-17T17:00:41.732Z,18.71
2018-05-17T17:03:09.038Z,18.52
2018-05-17T17:05:36.430Z,18.53
2018-05-17T17:08:04.265Z,18.58
2018-05-17T17:10:31.658Z,18.53
2018-05-17T17:12:59.050Z,18.56
2018-05-17T17:15:26.445Z,18.63
2018-05-17T17:17:53.906Z,18.67
2018-05-17T17:20:21.307Z,18.71
2018-05-17T17:22:48.704Z,18.68
2018-05-17T17:25:16.091Z,18.51
2018-05-17T17:27:43.478Z,18.57
2018-05-17T17:30:10.871Z,18.59
2018-05-17T17:32:38.263Z,18.44
2018-05-17T17:35:05.673Z,18.35
2018-05-17T17:37:33.063Z,18.36
2018-05-17T17:40:00.448Z,18.40
2018-05-17T17:42:27.839Z,18.35
2018-05-17T17:44:55.251Z,18.18
2018-05-17T17:47:22.689Z,18.25
2018-05-17T17:49:50.275Z,18.18
2018-05-17T17:52:17.607Z,18.01
2018-05-17T17:54:44.987Z,18.09
2018-05-17T17:57:12.499Z,18.15
2018-05-17T17:59:39.967Z,18.09
2018-05-17T18:02:07.363Z,18.09
2018-05-17T18:04:35.053Z,18.05
2018-05-17T18:07:02.524Z,17.99
2018-05-17T18:09:29.919Z,18.02
2018-05-17T18:11:59.094Z,17.86
2018-05-17T18:14:26.875Z,17.70
2018-05-17T18:16:55.820Z,17.69
2018-05-17T18:19:23.278Z,17.48
2018-05-17T18:21:50.711Z,17.35
2018-05-17T18:24:18.157Z,17.29
2018-05-17T18:26:45.534Z,17.24
2018-05-17T18:29:12.931Z,17.25
2018-05-17T18:31:40.314Z,17.09
2018-05-17T18:34:07.719Z,17.03
2018-05-17T18:36:35.109Z,16.93
2018-05-17T18:39:02.487Z,16.92
2018-05-17T18:41:29.868Z,16.90
2018-05-17T18:43:57.262Z,16.87
2018-05-17T18:46:24.652Z,16.67
2018-05-17T18:48:52.169Z,16.63
2018-05-17T18:51:19.627Z,16.44
2018-05-17T18:53:47.038Z,16.39
2018-05-17T18:56:14.541Z,16.25
2018-05-17T18:58:41.950Z,16.19
2018-05-17T19:01:09.342Z,16.18
2018-05-17T19:03:36.778Z,16.16
2018-05-17T19:06:04.176Z,16.07
2018-05-17T19:08:31.586Z,16.06
2018-05-17T19:10:58.998Z,15.92
2018-05-17T19:13:26.395Z,15.84
2018-05-17T19:15:53.788Z,15.73
2018-05-17T19:18:21.179Z,15.77
2018-05-17T19:20:48.581Z,15.62
2018-05-17T19:23:15.980Z,15.66
2018-05-17T19:25:43.485Z,15.67
2018-05-17T19:28:10.862Z,15.67
2018-05-17T19:30:38.266Z,15.49
2018-05-17T19:33:06.412Z,15.50
2018-05-17T19:35:33.798Z,15.31
2018-05-17T19:38:01.195Z,15.29
2018-05-17T19:40:28.758Z,15.19
2018-05-17T19:42:56.150Z,15.20
2018-05-17T19:45:23.639Z,15.09
2018-05-17T19:47:50.940Z,15.01
2018-05-17T19:50:18.335Z,14.92
2018-05-17T19:52:45.754Z,14.86
2018-05-17T19:55:13.231Z,14.78
2018-05-17T19:57:40.626Z,14.76
2018-05-17T20:00:08.011Z,14.64
2018-05-17T20:02:35.432Z,14.55
2018-05-17T20:05:02.867Z,14.59
2018-05-17T20:07:30.207Z,14.48
2018-05-17T20:09:57.598Z,14.45
2018-05-17T20:12:24.987Z,14.38
2018-05-17T20:14:52.383Z,14.33
2018-05-17T20:17:19.771Z,14.33
2018-05-17T20:19:47.175Z,14.28
2018-05-17T20:22:14.559Z,14.20
2018-05-17T20:24:41.963Z,14.09
2018-05-17T20:27:09.355Z,14.03
2018-05-17T20:29:36.755Z,14.04
2018-05-17T20:32:04.144Z,14.01
2018-05-17T20:34:31.539Z,13.97
2018-05-17T20:36:58.919Z,13.95
2018-05-17T20:39:26.315Z,13.93
2018-05-17T20:41:53.707Z,13.86
2018-05-17T20:44:21.102Z,13.87
2018-05-17T20:46:48.498Z,13.77
2018-05-17T20:49:15.968Z,13.70
2018-05-17T20:51:43.362Z,13.67
2018-05-17T20:54:10.780Z,13.62
2018-05-17T20:56:38.226Z,13.54
2018-05-17T20:59:05.595Z,13.47
2018-05-17T21:01:32.986Z,13.42
2018-05-17T21:04:00.375Z,13.27
2018-05-17T21:06:27.780Z,13.26
2018-05-17T21:08:55.176Z,13.19
2018-05-17T21:11:22.575Z,13.17
2018-05-17T21:13:49.975Z,13.11
2018-05-17T21:16:17.366Z,13.03
2018-05-17T21:18:44.770Z,12.96
2018-05-17T21:21:12.191Z,12.87
2018-05-17T21:23:39.575Z,12.88
2018-05-17T21:26:06.970Z,12.82
2018-05-17T21:28:34.358Z,12.75
2018-05-17T21:31:01.744Z,12.73
2018-05-17T21:33:29.139Z,12.71
2018-05-17T21:35:56.519Z,12.71
2018-05-17T21:38:23.918Z,12.54
2018-05-17T21:40:51.302Z,12.49
2018-05-17T21:43:18.700Z,12.55
2018-05-17T21:45:46.091Z,12.44
2018-05-17T21:48:13.481Z,12.38
2018-05-17T21:50:40.871Z,12.40
2018-05-17T21:53:08.267Z,12.26
2018-05-17T21:55:35.785Z,12.28
2018-05-17T21:58:03.202Z,12.16
2018-05-17T22:00:30.594Z,12.19
2018-05-17T22:02:57.990Z,12.15
2018-05-17T22:05:25.377Z,12.12
2018-05-17T22:07:52.758Z,12.13
2018-05-17T22:10:20.162Z,11.96
2018-05-17T22:12:47.555Z,11.96
2018-05-17T22:15:14.950Z,11.94
2018-05-17T22:17:42.337Z,11.89
2018-05-17T22:20:09.843Z,11.86
2018-05-17T22:22:37.223Z,11.74
2018-05-17T22:25:04.615Z,11.67
2018-05-17T22:27:32.002Z,11.71
2018-05-17T22:29:59.399Z,11.65
2018-05-17T22:32:26.803Z,11.61
2018-05-17T22:34:54.191Z,11.57
2018-05-17T22:37:21.579Z,11.56
2018-05-17T22:39:48.964Z,11.59
2018-05-17T22:42:16.359Z,11.52
2018-05-17T22:44:43.744Z,11.44
2018-05-17T22:47:11.147Z,11.40
2018-05-17T22:49:38.530Z,11.43
2018-05-17T22:52:06.026Z,11.41
2018-05-17T22:54:33.415Z,11.41
2018-05-17T22:57:10.463Z,11.46
2018-05-17T22:59:37.854Z,11.32
2018-05-17T23:02:05.250Z,11.28
2018-05-17T23:04:32.653Z,11.31
2018-05-17T23:07:00.058Z,11.23
2018-05-17T23:09:27.447Z,11.21
2018-05-17T23:11:54.835Z,11.19
2018-05-17T23:14:22.222Z,11.23
2018-05-17T23:16:49.615Z,11.21
2018-05-17T23:19:17.008Z,11.12
2018-05-17T23:21:44.398Z,11.19
2018-05-17T23:24:11.783Z,11.18
2018-05-17T23:26:39.170Z,11.17
2018-05-17T23:29:06.702Z,11.17
2018-05-17T23:31:34.087Z,11.11
2018-05-17T23:34:01.479Z,11.08
2018-05-17T23:36:28.867Z,11.10
2018-05-17T23:38:56.273Z,10.95
2018-05-17T23:44:22.412Z,10.67
2018-05-17T23:46:49.802Z,10.64
2018-05-17T23:49:17.190Z,10.60
2018-05-17T23:51:44.574Z,10.63
2018-05-17T23:54:12.398Z,10.67
2018-05-17T23:56:39.787Z,10.61
2018-05-17T23:59:07.174Z,10.60
